Time;durP1;ratioP1;P1;durP2;ratioP2;P2;SDS_P1;SDS_P2;PMS_P1;PMS_P2;Temp;Humidity;BMP_temperature;BMP_pressure;BME280_temperature;BME280_humidity;BME280_pressure;Samples;Min_cycle;Max_cycle;Signal;HPM_P1;HPM_P2
2022/12/11 00:01:16;;;;;;;26.17;8.03;;;;;;;18.13;100.00;103264.22;5093355;28;20310;-66
2022/12/11 00:03:43;;;;;;;23.97;8.10;;;;;;;17.99;100.00;97577.00;5093118;28;20192;-67
2022/12/11 00:06:13;;;;;;;19.50;7.67;;;;;;;18.02;100.00;90931.41;5093400;28;20638;-66
2022/12/11 00:08:40;;;;;;;18.40;8.00;;;;;;;18.09;100.00;84966.19;5093008;28;20195;-67
2022/12/11 00:11:08;;;;;;;18.87;8.37;;;;;;;18.02;100.00;81642.06;5093124;28;20540;-67
2022/12/11 00:13:35;;;;;;;18.00;8.30;;;;;;;17.96;100.00;76668.03;5093326;28;20192;-66
2022/12/11 00:16:02;;;;;;;20.00;7.70;;;;;;;17.90;100.00;66750.78;5093117;28;20189;-66
2022/12/11 00:18:29;;;;;;;16.83;7.67;;;;;;;17.85;100.00;60485.38;5093062;28;20690;-67
2022/12/11 00:21:00;;;;;;;14.90;7.43;;;;;;;17.88;100.00;56539.91;5092858;28;20183;-66
2022/12/11 00:23:28;;;;;;;20.97;7.40;;;;;;;17.83;100.00;52920.75;5091671;28;20192;-66
2022/12/11 00:25:55;;;;;;;14.03;7.73;;;;;;;17.85;100.00;54893.88;5092575;28;20236;-66
2022/12/11 00:28:22;;;;;;;13.90;7.37;;;;;;;17.89;100.00;54897.66;5092851;28;20260;-66
2022/12/11 00:30:49;;;;;;;11.90;7.17;;;;;;;17.84;100.00;53578.16;5092691;28;20234;-67
2022/12/11 00:33:16;;;;;;;9.83;7.23;;;;;;;17.82;100.00;49965.22;5092846;28;20495;-66
2022/12/11 00:35:45;;;;;;;12.83;6.87;;;;;;;17.83;100.00;48325.72;5093001;28;20191;-67
2022/12/11 00:38:15;;;;;;;21.93;8.17;;;;;;;17.82;100.00;52919.38;5092946;28;20613;-66
2022/12/11 00:40:44;;;;;;;21.43;8.00;;;;;;;17.91;100.00;53584.69;5092400;28;20283;-66
2022/12/11 00:43:12;;;;;;;14.73;7.97;;;;;;;17.89;100.00;53254.28;5092825;28;20711;-66
2022/12/11 00:45:41;;;;;;;12.83;8.13;;;;;;;17.72;100.00;58168.84;5092626;28;20184;-66
2022/12/11 00:48:08;;;;;;;13.20;7.37;;;;;;;17.76;100.00;58830.72;5092477;28;20559;-66
2022/12/11 00:50:36;;;;;;;16.60;7.77;;;;;;;17.98;100.00;65771.06;5092208;28;20199;-67
2022/12/11 00:53:03;;;;;;;13.33;7.37;;;;;;;17.69;100.00;68706.69;5092373;28;20623;-66
2022/12/11 00:55:30;;;;;;;12.83;7.60;;;;;;;17.99;100.00;72704.38;5092406;28;20196;-67
2022/12/11 00:57:59;;;;;;;13.63;7.37;;;;;;;18.01;100.00;73698.38;5091944;28;20188;-66
2022/12/11 01:00:26;;;;;;;11.90;7.70;;;;;;;18.03;100.00;76345.72;5091980;28;20184;-66
2022/12/11 01:02:53;;;;;;;16.73;7.57;;;;;;;18.05;100.00;73041.72;5091790;28;20258;-66
2022/12/11 01:05:20;;;;;;;18.13;7.27;;;;;;;17.78;100.00;70697.50;5090972;28;20188;-66
2022/12/11 01:07:47;;;;;;;12.33;7.40;;;;;;;18.07;100.00;68090.72;5092056;28;20271;-66
2022/12/11 01:10:26;;;;;;;22.37;8.60;;;;;;;18.01;100.00;63796.34;5092097;28;20635;-66
2022/12/11 01:12:55;;;;;;;15.07;8.13;;;;;;;17.91;100.00;58845.47;5092046;28;20184;-66
2022/12/11 01:15:25;;;;;;;18.43;8.20;;;;;;;18.00;100.00;56551.63;5091949;28;20184;-66
2022/12/11 01:17:52;;;;;;;11.00;7.53;;;;;;;18.00;100.00;56222.78;5091584;28;20180;-66
2022/12/11 01:20:20;;;;;;;20.20;8.87;;;;;;;17.99;100.00;61816.75;5091954;28;20180;-66
2022/12/11 01:22:47;;;;;;;16.40;9.50;;;;;;;17.59;100.00;53884.28;5091523;28;20281;-66
2022/12/11 01:25:14;;;;;;;16.60;10.73;;;;;;;17.25;100.00;37808.03;5091833;28;20228;-65
2022/12/11 01:27:41;;;;;;;17.17;11.00;;;;;;;16.85;100.00;22148.22;5092153;28;20623;-64
2022/12/11 01:30:09;;;;;;;20.23;10.10;;;;;;;16.60;100.00;13055.78;5091510;28;20185;-65
2022/12/11 01:32:37;;;;;;;19.07;11.03;;;;;;;16.34;100.00;6903.06;5091951;28;20183;-65
2022/12/11 01:35:05;;;;;;;19.07;10.77;;;;;;;16.08;100.00;766.72;5091520;28;20308;-65
2022/12/11 01:37:33;;;;;;;17.03;11.23;;;;;;;15.95;100.00;-3100.25;5091475;28;20190;-65
2022/12/11 01:40:00;;;;;;;19.37;12.00;;;;;;;15.71;100.00;-7281.94;5091341;28;20189;-66
2022/12/11 01:42:28;;;;;;;15.80;11.30;;;;;;;15.70;100.00;-9209.97;5091645;28;20721;-65
2022/12/11 01:45:35;;;;;;;28.37;11.37;;;;;;;15.70;100.00;-11136.97;5091618;28;20191;-66
2022/12/11 01:48:08;;;;;;;22.43;11.80;;;;;;;15.57;100.00;-13702.31;5091257;28;20236;-66
2022/12/11 01:50:38;;;;;;;18.57;11.40;;;;;;;15.43;100.00;-16905.25;5091236;28;20188;-66
2022/12/11 01:53:08;;;;;;;25.40;11.33;;;;;;;15.33;100.00;-16582.75;5091588;28;20179;-66
2022/12/11 01:55:37;;;;;;;25.00;12.30;;;;;;;15.16;100.00;-16258.72;5091647;28;20196;-66
2022/12/11 01:58:04;;;;;;;29.27;12.93;;;;;;;15.17;100.00;-14977.53;5091330;28;20190;-65
2022/12/11 02:00:31;;;;;;;21.67;12.70;;;;;;;15.16;100.00;-14015.97;5091512;28;20188;-66
2022/12/11 02:02:58;;;;;;;28.77;13.37;;;;;;;15.19;100.00;-13054.78;5091230;28;20334;-66
2022/12/11 02:05:26;;;;;;;24.17;11.70;;;;;;;15.13;100.00;-12091.94;5090239;28;20184;-66
2022/12/11 02:07:56;;;;;;;31.60;13.40;;;;;;;15.15;100.00;-12092.31;5091090;28;20195;-66
2022/12/11 02:10:26;;;;;;;22.90;12.80;;;;;;;15.09;100.00;-12091.53;5091521;28;20555;-65
2022/12/11 02:13:00;;;;;;;20.53;12.10;;;;;;;15.07;100.00;-12411.88;5091092;28;20191;-66
2022/12/11 02:15:34;;;;;;;25.37;13.30;;;;;;;15.11;100.00;-12091.66;5092384;28;20652;-66
2022/12/11 02:18:13;;;;;;;28.83;12.33;;;;;;;15.12;100.00;-11771.19;5095043;28;20192;-66
2022/12/11 02:20:47;;;;;;;23.13;12.40;;;;;;;15.18;100.00;-12092.72;5095114;28;20184;-65
2022/12/11 02:23:42;;;;;;;18.63;12.03;;;;;;;15.22;100.00;-12413.94;5094933;28;20294;-65
2022/12/11 02:26:24;;;;;;;26.30;11.77;;;;;;;15.28;100.00;-12414.81;5094794;28;20609;-66
2022/12/11 02:28:55;;;;;;;24.40;11.63;;;;;;;15.71;100.00;-11137.09;5095290;28;20184;-66
2022/12/11 02:31:32;;;;;;;20.87;11.80;;;;;;;15.94;100.00;-8247.94;5093954;28;20206;-67
2022/12/11 02:34:04;;;;;;;22.50;13.07;;;;;;;16.09;100.00;-9213.63;5095028;28;20187;-66
2022/12/11 02:36:35;;;;;;;14.00;10.70;;;;;;;15.96;100.00;-6318.59;5095113;28;20202;-67
2022/12/11 02:39:04;;;;;;;17.10;11.53;;;;;;;15.68;100.00;-11778.69;5094636;28;20185;-66
2022/12/11 02:41:33;;;;;;;23.30;11.27;;;;;;;15.42;100.00;-14020.53;5094695;28;20184;-66
2022/12/11 02:44:03;;;;;;;31.77;12.33;;;;;;;15.35;100.00;-15301.50;5095053;28;20188;-67
2022/12/11 02:46:32;;;;;;;21.63;12.17;;;;;;;15.20;100.00;-14978.09;5094716;28;20188;-67
2022/12/11 02:48:59;;;;;;;23.37;12.87;;;;;;;15.36;100.00;-14340.00;5094444;28;20222;-67
2022/12/11 02:51:32;;;;;;;22.17;12.00;;;;;;;15.34;100.00;-14019.06;5094482;28;20192;-66
2022/12/11 02:53:59;;;;;;;21.37;11.57;;;;;;;15.25;100.00;-14017.59;5094952;28;20203;-68
2022/12/11 02:56:31;;;;;;;22.60;11.70;;;;;;;15.27;100.00;-13697.28;5094448;28;20303;-68
2022/12/11 02:59:04;;;;;;;29.50;12.47;;;;;;;15.26;100.00;-13055.88;5094606;28;20188;-67
2022/12/11 03:01:31;;;;;;;18.90;11.77;;;;;;;15.24;100.00;-13696.78;5094485;28;20693;-66
2022/12/11 03:03:58;;;;;;;28.73;11.90;;;;;;;15.15;100.00;-13695.28;5094410;28;20655;-66
2022/12/11 03:06:31;;;;;;;14.83;12.60;;;;;;;15.07;100.00;-13694.09;5094450;28;20184;-68
2022/12/11 03:08:58;;;;;;;23.90;12.30;;;;;;;14.96;100.00;-13692.25;5094511;28;20282;-67
2022/12/11 03:11:25;;;;;;;29.50;13.13;;;;;;;14.95;100.00;-13692.00;5094269;28;20184;-67
2022/12/11 03:13:53;;;;;;;27.67;11.87;;;;;;;14.87;100.00;-13049.81;5094409;28;20188;-67
2022/12/11 03:16:31;;;;;;;20.63;12.03;;;;;;;14.71;100.00;-14008.25;5094158;28;20179;-67
2022/12/11 03:19:07;;;;;;;21.30;12.47;;;;;;;14.59;100.00;-13686.03;5094480;28;20539;-66
2022/12/11 03:21:41;;;;;;;24.87;11.80;;;;;;;14.57;100.00;-13045.25;5094386;28;20527;-67
2022/12/11 03:24:15;;;;;;;24.83;12.53;;;;;;;14.58;100.00;-12725.00;5093910;28;20211;-66
2022/12/11 03:26:46;;;;;;;27.67;12.57;;;;;;;14.45;100.00;-12082.44;5093572;28;20631;-67
2022/12/11 03:29:20;;;;;;;25.67;12.87;;;;;;;14.66;100.00;-11764.88;5093893;28;20180;-67
2022/12/11 03:31:55;;;;;;;26.87;12.50;;;;;;;14.72;100.00;-10804.06;5094318;28;20638;-67
2022/12/11 03:34:29;;;;;;;24.07;11.60;;;;;;;14.68;100.00;-10162.44;5094058;28;20188;-67
2022/12/11 03:36:58;;;;;;;25.13;11.73;;;;;;;14.73;100.00;-10483.63;5094207;28;20199;-67
2022/12/11 03:39:31;;;;;;;26.83;11.77;;;;;;;14.74;100.00;-10483.69;5093785;28;20184;-68
2022/12/11 03:42:01;;;;;;;29.33;10.87;;;;;;;14.91;100.00;-9844.22;5093652;28;20271;-65
2022/12/11 03:44:32;;;;;;;30.47;12.90;;;;;;;14.81;100.00;-10163.88;5093780;28;20184;-66
2022/12/11 03:47:03;;;;;;;29.27;11.83;;;;;;;14.80;100.00;-11125.72;5093476;28;20194;-68
2022/12/11 03:49:35;;;;;;;24.93;11.97;;;;;;;14.49;100.00;-11762.63;5093503;28;20188;-66
2022/12/11 03:52:03;;;;;;;30.90;14.00;;;;;;;14.76;100.00;-11766.25;5093752;28;20268;-67
2022/12/11 03:54:30;;;;;;;37.57;14.67;;;;;;;14.82;100.00;-12087.69;5093892;28;20200;-67
2022/12/11 03:57:01;;;;;;;30.20;14.57;;;;;;;14.88;100.00;-11767.97;5093748;28;20567;-67
2022/12/11 03:59:28;;;;;;;26.53;13.17;;;;;;;14.93;100.00;-11448.03;5093414;28;20199;-66
2022/12/11 04:01:55;;;;;;;25.67;12.90;;;;;;;15.00;100.00;-12090.25;5093472;28;20281;-67
2022/12/11 04:04:23;;;;;;;23.77;12.00;;;;;;;15.09;100.00;-12412.09;5093308;28;20191;-67
2022/12/11 04:06:50;;;;;;;20.20;11.93;;;;;;;15.18;100.00;-12734.00;5093529;28;20280;-67
2022/12/11 04:09:17;;;;;;;28.40;11.30;;;;;;;15.24;100.00;-13055.56;5093526;28;20635;-66
2022/12/11 04:11:44;;;;;;;24.70;10.37;;;;;;;15.29;100.00;-13697.63;5093172;28;20191;-66
2022/12/11 04:16:58;;;;;;;21.23;12.33;;;;;;;15.36;100.00;-12736.81;5093386;28;20565;-67
2022/12/11 04:24:56;;;;;;;19.77;11.17;;;;;;;15.86;100.00;-9532.81;5095417;28;20350;-66
2022/12/11 04:30:11;;;;;;;23.70;11.03;;;;;;;16.39;100.00;-521.34;5095403;28;20184;-67
2022/12/11 04:32:38;;;;;;;19.43;10.60;;;;;;;16.56;100.00;4967.50;5094178;28;20188;-67
2022/12/11 04:35:08;;;;;;;20.00;10.97;;;;;;;16.71;100.00;9173.50;5095239;28;20192;-66
2022/12/11 04:37:35;;;;;;;16.83;9.77;;;;;;;16.88;100.00;13711.41;5095558;28;20184;-67
2022/12/11 04:40:02;;;;;;;28.87;10.23;;;;;;;16.98;100.00;18904.81;5094048;28;20228;-66
2022/12/11 04:42:29;;;;;;;19.43;9.70;;;;;;;17.10;100.00;23458.66;5093599;28;20240;-67
2022/12/11 04:44:56;;;;;;;17.13;9.80;;;;;;;17.22;100.00;26066.91;5093796;28;20190;-67
2022/12/11 04:47:23;;;;;;;17.37;9.80;;;;;;;17.32;100.00;29329.13;5093648;28;20192;-66
2022/12/11 04:49:50;;;;;;;21.87;10.87;;;;;;;17.57;100.00;33582.66;5093157;28;20290;-67
2022/12/11 04:52:19;;;;;;;18.90;9.50;;;;;;;17.65;100.00;46999.25;5092441;28;20271;-67
2022/12/11 04:54:46;;;;;;;13.07;10.00;;;;;;;17.72;100.00;59485.16;5092711;28;20188;-66
2022/12/11 04:57:12;;;;;;;17.27;9.10;;;;;;;18.03;100.00;69406.34;5092160;28;20195;-67
2022/12/11 04:59:39;;;;;;;22.70;9.77;;;;;;;18.19;100.00;74381.75;5092290;28;20184;-66
2022/12/11 05:02:06;;;;;;;18.13;10.03;;;;;;;18.33;100.00;86328.34;5092007;28;20196;-67
2022/12/11 05:04:34;;;;;;;22.57;9.97;;;;;;;18.34;100.00;89650.03;5091930;28;20204;-67
2022/12/11 05:07:01;;;;;;;28.47;10.83;;;;;;;18.44;100.00;95319.13;5092368;28;20189;-68
2022/12/11 05:09:29;;;;;;;17.17;9.47;;;;;;;18.37;100.00;102304.75;5092027;28;20635;-68
2022/12/11 05:11:56;;;;;;;14.27;9.73;;;;;;;18.44;100.00;101983.38;5092333;28;20188;-66
2022/12/11 05:14:25;;;;;;;20.17;9.90;;;;;;;18.63;100.00;107692.00;5091910;28;20191;-67
2022/12/11 05:16:52;;;;;;;18.50;9.77;;;;;;;18.62;100.00;106019.94;5091884;28;20198;-67
2022/12/11 05:19:18;;;;;;;18.20;9.73;;;;;;;18.70;100.00;110712.75;5090511;28;20220;-67
2022/12/11 05:21:45;;;;;;;12.47;9.53;;;;;;;18.73;100.00;117748.53;5091899;28;20191;-66
2022/12/11 05:24:12;;;;;;;14.73;9.53;;;;;;;18.81;100.00;119776.19;5091651;28;20219;-68
2022/12/11 05:26:40;;;;;;;19.70;9.87;;;;;;;18.76;100.00;125472.81;5091977;28;20559;-67
2022/12/11 05:29:07;;;;;;;24.47;10.50;;;;;;;18.78;100.00;120440.91;5091984;28;20221;-67
2022/12/11 05:31:34;;;;;;;17.80;9.17;;;;;;;18.69;100.00;116737.31;5092141;28;20631;-67
2022/12/11 05:34:01;;;;;;;16.17;9.63;;;;;;;18.60;100.00;105682.38;5091720;28;20180;-67
2022/12/11 05:36:30;;;;;;;17.60;9.40;;;;;;;18.56;100.00;100669.31;5091983;28;20274;-67
2022/12/11 05:38:58;;;;;;;17.80;10.07;;;;;;;18.61;100.00;97011.75;5091685;28;20196;-67
2022/12/11 05:41:27;;;;;;;13.77;9.57;;;;;;;18.59;100.00;103677.59;5091598;28;20187;-67
2022/12/11 05:43:56;;;;;;;19.10;9.50;;;;;;;18.62;100.00;105685.97;5091542;28;20208;-67
2022/12/11 05:46:24;;;;;;;22.13;8.90;;;;;;;18.59;100.00;104344.25;5091790;28;20192;-67
2022/12/11 05:48:54;;;;;;;19.10;9.63;;;;;;;18.63;100.00;110031.78;5091682;28;20620;-66
2022/12/11 05:51:22;;;;;;;19.17;8.97;;;;;;;18.67;100.00;106696.94;5091457;28;20653;-67
2022/12/11 05:53:50;;;;;;;13.87;9.43;;;;;;;18.61;100.00;109359.41;5091824;28;20196;-67
2022/12/11 05:56:19;;;;;;;23.37;9.53;;;;;;;18.46;100.00;107660.09;5091330;28;20188;-66
2022/12/11 05:58:47;;;;;;;20.13;9.07;;;;;;;18.58;100.00;112028.13;5091630;28;20646;-67
2022/12/11 06:01:18;;;;;;;17.07;9.73;;;;;;;18.49;100.00;101324.19;5091376;28;20192;-68
2022/12/11 06:03:45;;;;;;;17.30;9.13;;;;;;;18.59;100.00;107016.53;5091507;28;20207;-67
2022/12/11 06:06:12;;;;;;;17.07;9.20;;;;;;;18.69;100.00;108704.69;5091840;28;20184;-67
2022/12/11 06:08:39;;;;;;;13.53;8.70;;;;;;;18.55;100.00;106007.34;5091528;28;20191;-68
2022/12/11 06:11:07;;;;;;;21.23;8.60;;;;;;;18.68;100.00;107032.84;5091643;28;20528;-67
2022/12/11 06:13:34;;;;;;;21.07;8.77;;;;;;;18.58;100.00;97340.78;5091597;28;20570;-67
2022/12/11 06:16:02;;;;;;;12.67;8.53;;;;;;;18.71;100.00;103364.03;5091215;28;20188;-67
2022/12/11 06:18:30;;;;;;;15.57;8.60;;;;;;;18.83;100.00;109398.28;5091467;28;20715;-67
2022/12/11 06:20:57;;;;;;;19.90;8.63;;;;;;;18.85;100.00;108399.78;5091435;28;20641;-68
2022/12/11 06:23:24;;;;;;;21.03;8.73;;;;;;;18.83;100.00;108395.22;5091612;28;20200;-67
2022/12/11 06:25:51;;;;;;;18.53;8.13;;;;;;;18.88;100.00;106398.94;5090967;28;20231;-67
2022/12/11 06:28:18;;;;;;;25.70;9.00;;;;;;;18.84;100.00;104053.66;5091677;28;20261;-67
2022/12/11 06:30:45;;;;;;;16.13;8.53;;;;;;;18.94;100.00;106076.47;5091378;28;20191;-67
2022/12/11 06:33:12;;;;;;;18.70;8.50;;;;;;;18.84;100.00;100716.25;5091236;28;20252;-67
2022/12/11 06:35:40;;;;;;;15.23;8.00;;;;;;;18.96;100.00;103407.78;5091320;28;20199;-67
2022/12/11 06:38:07;;;;;;;19.83;8.43;;;;;;;19.06;100.00;111784.31;5091566;28;20240;-66
2022/12/11 06:40:34;;;;;;;16.80;7.50;;;;;;;19.05;100.00;112117.19;5091341;28;20192;-68
2022/12/11 06:43:02;;;;;;;19.60;8.07;;;;;;;18.98;100.00;102409.69;5090762;28;20200;-67
2022/12/11 06:45:29;;;;;;;18.23;8.10;;;;;;;19.02;100.00;105421.59;5091139;28;20616;-67
2022/12/11 06:47:56;;;;;;;15.17;7.90;;;;;;;19.01;100.00;106088.16;5090761;28;20279;-67
2022/12/11 06:50:23;;;;;;;15.77;8.00;;;;;;;19.05;100.00;108102.03;5090931;28;20631;-67
2022/12/11 06:52:51;;;;;;;15.67;7.67;;;;;;;19.02;100.00;106759.28;5090853;28;20274;-67
2022/12/11 06:55:18;;;;;;;17.17;7.83;;;;;;;19.02;100.00;103084.34;5091205;28;20196;-67
2022/12/11 06:57:45;;;;;;;18.87;7.90;;;;;;;18.99;100.00;103412.16;5090834;28;20180;-68
2022/12/11 07:00:13;;;;;;;28.07;8.87;;;;;;;19.04;100.00;102086.25;5091008;28;20195;-68
2022/12/11 07:02:40;;;;;;;19.50;8.17;;;;;;;18.99;100.00;102745.25;5092106;28;20188;-67
2022/12/11 07:05:07;;;;;;;20.17;7.53;;;;;;;19.07;100.00;105096.38;5094345;28;20220;-66
2022/12/11 07:07:34;;;;;;;19.07;8.13;;;;;;;19.05;100.00;100752.06;5094467;28;20188;-67
2022/12/11 07:10:03;;;;;;;20.13;7.50;;;;;;;19.00;100.00;105418.03;5094740;28;20184;-67
2022/12/11 07:12:30;;;;;;;13.77;7.30;;;;;;;19.13;100.00;105775.44;5094254;28;20180;-67
2022/12/11 07:14:56;;;;;;;16.20;7.27;;;;;;;19.10;100.00;98092.66;5094305;28;20191;-67
2022/12/11 07:17:23;;;;;;;15.97;8.33;;;;;;;19.09;100.00;91094.50;5094569;28;20188;-67
2022/12/11 07:19:50;;;;;;;25.20;7.77;;;;;;;18.93;100.00;82098.41;5094166;28;20188;-67
2022/12/11 07:22:17;;;;;;;13.67;6.83;;;;;;;19.06;100.00;78136.63;5094311;28;20279;-67
2022/12/11 07:24:44;;;;;;;18.07;7.40;;;;;;;19.02;100.00;78130.63;5093775;28;20274;-67
2022/12/11 07:27:12;;;;;;;15.20;7.00;;;;;;;19.01;100.00;75147.75;5094399;28;20603;-68
2022/12/11 07:29:39;;;;;;;18.23;7.67;;;;;;;18.82;100.00;68506.97;5094419;28;20563;-68
2022/12/11 07:32:06;;;;;;;15.80;7.37;;;;;;;18.98;100.00;62250.97;5093790;28;20188;-68
2022/12/11 07:34:33;;;;;;;13.73;7.03;;;;;;;18.95;100.00;59279.66;5094125;28;20591;-67
2022/12/11 07:37:00;;;;;;;17.60;8.30;;;;;;;18.81;100.00;47421.66;5094372;28;20199;-67
2022/12/11 07:39:26;;;;;;;12.60;7.73;;;;;;;18.39;100.00;36574.66;5093998;28;20184;-67
2022/12/11 07:41:54;;;;;;;18.77;7.53;;;;;;;18.55;100.00;31026.78;5093630;28;20192;-67
2022/12/11 07:44:22;;;;;;;16.90;7.83;;;;;;;18.72;100.00;31036.00;5093948;28;20293;-67
2022/12/11 07:46:49;;;;;;;11.13;7.30;;;;;;;18.69;100.00;30054.22;5093882;28;20283;-67
2022/12/11 07:49:16;;;;;;;14.20;6.43;;;;;;;18.64;100.00;29724.88;5093467;28;20183;-67
2022/12/11 07:51:43;;;;;;;13.60;6.93;;;;;;;18.54;100.00;29066.72;5092579;28;20534;-67
2022/12/11 07:54:15;;;;;;;14.77;6.90;;;;;;;18.63;100.00;29398.03;5093836;28;20613;-66
2022/12/11 07:56:42;;;;;;;19.80;6.20;;;;;;;18.58;100.00;24174.78;5093437;28;20184;-67
2022/12/11 07:59:09;;;;;;;10.00;6.00;;;;;;;18.43;100.00;24820.03;5093603;28;20194;-67
2022/12/11 08:01:39;;;;;;;8.63;5.77;;;;;;;18.65;100.00;26134.91;5093627;28;20642;-67
2022/12/11 08:04:08;;;;;;;9.57;6.23;;;;;;;18.70;100.00;26137.28;5093024;28;20208;-67
2022/12/11 08:06:37;;;;;;;10.27;5.30;;;;;;;18.73;100.00;28749.66;5093363;28;20298;-68
2022/12/11 08:09:06;;;;;;;7.13;5.30;;;;;;;18.75;100.00;27771.16;5091873;28;20199;-67
2022/12/11 08:11:32;;;;;;;9.67;5.23;;;;;;;18.70;100.00;29401.47;5093367;28;20191;-67
2022/12/11 08:14:01;;;;;;;13.87;5.27;;;;;;;18.75;100.00;29077.53;5092620;28;20216;-69
2022/12/11 08:16:28;;;;;;;10.03;5.13;;;;;;;18.54;100.00;28413.81;5093361;28;20574;-67
2022/12/11 08:18:56;;;;;;;9.63;4.97;;;;;;;18.81;100.00;29733.75;5093029;28;20184;-67
2022/12/11 08:21:25;;;;;;;7.27;5.20;;;;;;;18.81;100.00;30060.44;5093120;28;20623;-67
2022/12/11 08:23:53;;;;;;;11.23;5.37;;;;;;;18.75;100.00;26791.88;5092835;28;20204;-67
2022/12/11 08:26:22;;;;;;;10.23;5.30;;;;;;;18.73;100.00;24833.31;5092884;28;20228;-67
2022/12/11 08:28:49;;;;;;;10.17;5.30;;;;;;;18.77;100.00;24509.19;5092846;28;20192;-67
2022/12/11 08:31:17;;;;;;;6.60;5.20;;;;;;;18.78;100.00;24509.66;5093400;28;20634;-67
2022/12/11 08:33:45;;;;;;;10.50;5.00;;;;;;;18.73;100.00;22550.91;5093107;28;20180;-67
2022/12/11 08:36:15;;;;;;;9.60;4.67;;;;;;;18.72;100.00;24180.81;5092784;28;20677;-66
2022/12/11 08:38:43;;;;;;;14.60;4.87;;;;;;;18.81;100.00;26468.69;5092674;28;20287;-67
2022/12/11 08:41:11;;;;;;;4.93;3.70;;;;;;;18.84;100.00;33004.31;5092543;28;20188;-67
2022/12/11 08:43:38;;;;;;;8.67;4.37;;;;;;;18.89;100.00;33988.28;5093014;28;20304;-67
2022/12/11 08:46:05;;;;;;;8.53;4.30;;;;;;;18.91;100.00;38245.28;5092772;28;20627;-67
2022/12/11 08:48:33;;;;;;;6.33;4.20;;;;;;;19.07;100.00;43502.78;5092525;28;20199;-67
2022/12/11 08:51:01;;;;;;;6.70;4.43;;;;;;;19.05;100.00;44157.63;5092331;28;20181;-67
2022/12/11 08:53:30;;;;;;;6.80;4.20;;;;;;;19.22;100.00;54364.00;5092282;28;20180;-67
2022/12/11 08:56:01;;;;;;;6.33;3.47;;;;;;;19.35;100.00;58331.09;5092484;28;20634;-67
2022/12/11 08:58:28;;;;;;;6.57;3.63;;;;;;;19.44;100.00;63620.72;5092180;28;20224;-66
2022/12/11 09:00:55;;;;;;;5.00;3.67;;;;;;;19.55;100.00;69584.81;5092429;28;20690;-67
2022/12/11 09:03:23;;;;;;;5.90;3.77;;;;;;;19.64;100.00;77548.97;5092302;28;20187;-67
2022/12/11 09:05:49;;;;;;;3.33;2.97;;;;;;;19.53;100.00;71569.31;5091921;28;20196;-67
2022/12/11 09:08:16;;;;;;;6.27;3.30;;;;;;;19.64;100.00;70919.22;5092084;28;20195;-67
2022/12/11 09:10:45;;;;;;;6.10;3.03;;;;;;;19.70;100.00;73908.91;5092120;28;20195;-67
2022/12/11 09:13:11;;;;;;;4.93;3.17;;;;;;;19.52;100.00;78528.38;5092231;28;20184;-67
2022/12/11 09:15:41;;;;;;;6.07;2.90;;;;;;;19.83;100.00;85547.75;5092269;28;20184;-66
2022/12/11 09:18:08;;;;;;;8.07;2.77;;;;;;;19.85;100.00;94545.00;5092097;28;20558;-66
2022/12/11 09:20:35;;;;;;;8.20;3.47;;;;;;;19.86;100.00;87548.69;5091865;28;20192;-67
2022/12/11 09:23:02;;;;;;;6.20;3.10;;;;;;;20.04;100.00;93907.41;5091874;28;20184;-67
2022/12/11 09:25:29;;;;;;;3.33;3.03;;;;;;;20.02;100.00;89903.88;5090788;28;20238;-67
2022/12/11 09:27:57;;;;;;;7.17;3.13;;;;;;;20.19;100.00;103620.66;5091831;28;20271;-67
2022/12/11 09:30:24;;;;;;;4.10;3.30;;;;;;;20.24;100.00;105302.84;5091762;28;20180;-68
2022/12/11 09:32:51;;;;;;;6.07;2.90;;;;;;;20.09;100.00;98254.81;5091829;28;20256;-67
2022/12/11 09:35:18;;;;;;;4.80;2.93;;;;;;;19.92;100.00;83565.22;5091796;28;20199;-66
2022/12/11 09:37:45;;;;;;;5.53;2.57;;;;;;;19.89;100.00;80902.78;5091678;28;20195;-68
2022/12/11 09:40:13;;;;;;;8.87;3.10;;;;;;;19.95;100.00;74935.38;5091851;28;20194;-67
2022/12/11 09:42:53;;;;;;;5.37;2.83;;;;;;;20.34;100.00;106995.22;5091894;28;20631;-67
2022/12/11 09:45:21;;;;;;;8.93;2.93;;;;;;;20.84;100.00;141296.84;5091755;28;20227;-67
2022/12/11 09:47:52;;;;;;;5.53;3.30;;;;;;;21.61;100.00;151469.88;5091519;28;20188;-67
2022/12/11 09:50:23;;;;;;;8.97;2.77;;;;;;;22.30;100.00;151645.88;5091504;28;20188;-68
2022/12/11 09:53:03;;;;;;;3.97;2.47;;;;;;;22.54;100.00;151704.53;5091688;28;20187;-68
2022/12/11 09:55:35;;;;;;;2.90;2.43;;;;;;;22.73;100.00;151754.34;5091786;28;20183;-68
2022/12/11 09:58:11;;;;;;;8.43;2.95;;;;;;;22.23;100.00;151626.78;5091755;28;20208;-68
2022/12/11 10:00:44;;;;;;;6.95;2.42;;;;;;;22.61;100.00;151722.41;5091287;28;20665;-68
2022/12/11 10:03:33;;;;;;;7.45;3.03;;;;;;;23.09;100.00;151843.59;5091415;28;20188;-69
2022/12/11 10:06:08;;;;;;;7.13;2.70;;;;;;;22.46;100.00;151685.41;5091396;28;20207;-68
2022/12/11 10:08:45;;;;;;;5.72;2.88;;;;;;;22.53;100.00;151703.25;5091328;28;20180;-68
2022/12/11 10:11:32;;;;;;;5.75;2.67;;;;;;;22.74;100.00;151755.63;5091523;28;20234;-68
2022/12/11 10:14:08;;;;;;;3.72;2.72;;;;;;;23.24;100.00;151881.91;5091498;28;20188;-68
2022/12/11 10:16:42;;;;;;;8.52;3.03;;;;;;;24.01;100.00;152077.25;5091834;28;20626;-68
2022/12/11 10:19:17;;;;;;;4.22;2.58;;;;;;;23.84;100.00;152033.84;5091170;28;20714;-68
2022/12/11 10:21:46;;;;;;;3.45;2.90;;;;;;;23.43;100.00;151929.09;5091284;28;20188;-68
2022/12/11 10:24:20;;;;;;;4.85;3.78;;;;;;;23.21;100.00;151875.50;5090853;28;20315;-67
2022/12/11 10:26:48;;;;;;;5.30;3.30;;;;;;;23.87;100.00;152040.19;5091381;28;20650;-68
2022/12/11 10:29:15;;;;;;;4.18;3.63;;;;;;;23.84;100.00;152032.56;5091358;28;20184;-67
2022/12/11 10:31:50;;;;;;;4.95;3.00;;;;;;;24.02;100.00;152078.47;5091066;28;20193;-67
2022/12/11 10:34:27;;;;;;;10.27;4.03;;;;;;;24.10;100.00;152100.16;5091335;28;20184;-67
2022/12/11 10:36:54;;;;;;;7.55;4.22;;;;;;;23.80;100.00;152023.63;5092531;28;20198;-66
2022/12/11 10:39:22;;;;;;;7.57;4.38;;;;;;;23.22;100.00;151878.06;5094938;28;20242;-67
2022/12/11 10:41:50;;;;;;;7.70;3.58;;;;;;;21.99;100.00;151566.81;5095194;28;20210;-67
2022/12/11 10:44:19;;;;;;;9.33;3.30;;;;;;;21.79;100.00;151517.06;5095106;28;20199;-67
2022/12/11 10:46:49;;;;;;;7.13;3.27;;;;;;;21.83;100.00;151526.00;5095236;28;20188;-67
2022/12/11 10:49:23;;;;;;;5.32;3.05;;;;;;;22.54;100.00;151704.53;5094302;28;20674;-66
2022/12/11 10:51:52;;;;;;;10.18;2.97;;;;;;;22.39;100.00;151666.28;5095034;28;20198;-67
2022/12/11 10:54:31;;;;;;;6.47;3.17;;;;;;;21.48;100.00;151436.75;5094995;28;20184;-67
2022/12/11 10:56:58;;;;;;;8.80;3.00;;;;;;;21.40;100.00;151418.94;5093525;28;20184;-66
2022/12/11 10:59:32;;;;;;;12.97;3.90;;;;;;;21.34;100.00;151403.63;5094567;28;20184;-67
2022/12/11 11:02:02;;;;;;;8.82;3.30;;;;;;;21.87;100.00;151537.47;5094667;28;20215;-68
2022/12/11 11:04:32;;;;;;;5.77;3.10;;;;;;;22.46;100.00;151684.13;5094534;28;20212;-67
2022/12/11 11:07:04;;;;;;;5.75;3.55;;;;;;;22.81;100.00;151773.47;5094666;28;20188;-67
2022/12/11 11:09:34;;;;;;;5.10;2.72;;;;;;;22.18;100.00;151615.28;5094384;28;20279;-67
2022/12/11 11:12:01;;;;;;;7.40;3.22;;;;;;;22.10;100.00;151593.63;5094354;28;20195;-67
2022/12/11 11:14:28;;;;;;;10.00;3.83;;;;;;;22.09;100.00;151592.34;5094457;28;20623;-67
2022/12/11 11:16:57;;;;;;;9.45;3.50;;;;;;;21.90;100.00;151542.59;5094293;28;20723;-66
2022/12/11 11:19:30;;;;;;;11.13;3.38;;;;;;;21.61;100.00;151469.88;5094064;28;20184;-67
2022/12/11 11:22:00;;;;;;;7.10;3.73;;;;;;;21.50;100.00;151441.88;5093966;28;20195;-66
2022/12/11 11:24:33;;;;;;;7.33;4.07;;;;;;;21.47;100.00;151434.25;5093901;28;20204;-66
2022/12/11 11:27:00;;;;;;;11.70;3.93;;;;;;;21.83;100.00;151526.00;5094369;28;20199;-66
2022/12/11 11:29:30;;;;;;;10.35;4.00;;;;;;;21.99;100.00;151566.81;5093930;28;20188;-66
2022/12/11 11:32:02;;;;;;;10.90;3.33;;;;;;;21.86;100.00;151533.63;5094350;28;20200;-66